sensor_id;sensor_type;location;lat;lon;timestamp;pressure;altitude;pressure_sealevel;temperature;humidity
42433;BME280;28071;48.232;20.668;2023-05-24T00:00:54;99218.75;;;14.95;100.00
42433;BME280;28071;48.232;20.668;2023-05-24T00:05:55;99209.41;;;14.98;100.00
42433;BME280;28071;48.232;20.668;2023-05-24T00:10:56;99205.41;;;15.01;100.00
42433;BME280;28071;48.232;20.668;2023-05-24T00:15:56;99216.66;;;15.03;100.00
42433;BME280;28071;48.232;20.668;2023-05-24T00:20:57;99206.75;;;15.03;100.00
42433;BME280;28071;48.232;20.668;2023-05-24T00:25:57;99209.47;;;15.08;100.00
42433;BME280;28071;48.232;20.668;2023-05-24T00:30:59;99226.78;;;14.95;100.00
42433;BME280;28071;48.232;20.668;2023-05-24T00:35:59;99220.59;;;14.95;100.00
42433;BME280;28071;48.232;20.668;2023-05-24T00:41:00;99227.00;;;14.89;100.00
42433;BME280;28071;48.232;20.668;2023-05-24T00:46:27;99196.16;;;14.81;100.00
42433;BME280;28071;48.232;20.668;2023-05-24T00:51:28;99225.56;;;15.08;100.00
42433;BME280;28071;48.232;20.668;2023-05-24T00:56:29;99214.31;;;15.11;100.00
42433;BME280;28071;48.232;20.668;2023-05-24T01:01:30;99223.41;;;15.05;100.00
42433;BME280;28071;48.232;20.668;2023-05-24T01:06:36;99224.63;;;14.92;100.00
42433;BME280;28071;48.232;20.668;2023-05-24T01:11:52;99239.81;;;14.87;100.00
42433;BME280;28071;48.232;20.668;2023-05-24T01:17:03;99230.69;;;14.83;100.00
42433;BME280;28071;48.232;20.668;2023-05-24T01:27:36;99231.84;;;14.92;100.00
42433;BME280;28071;48.232;20.668;2023-05-24T01:32:37;99222.78;;;14.71;100.00
42433;BME280;28071;48.232;20.668;2023-05-24T01:37:38;99246.69;;;14.78;100.00
42433;BME280;28071;48.232;20.668;2023-05-24T01:48:01;99247.72;;;14.98;100.00
42433;BME280;28071;48.232;20.668;2023-05-24T01:53:06;99221.66;;;14.89;100.00
42433;BME280;28071;48.232;20.668;2023-05-24T01:58:08;99241.03;;;15.01;100.00
42433;BME280;28071;48.232;20.668;2023-05-24T02:03:13;99230.97;;;14.86;100.00
42433;BME280;28071;48.232;20.668;2023-05-24T02:08:13;99245.34;;;14.75;100.00
42433;BME280;28071;48.232;20.668;2023-05-24T02:13:14;99243.66;;;14.69;100.00
42433;BME280;28071;48.232;20.668;2023-05-24T02:18:17;99242.25;;;14.61;100.00
42433;BME280;28071;48.232;20.668;2023-05-24T02:23:17;99246.53;;;14.62;100.00
42433;BME280;28071;48.232;20.668;2023-05-24T02:28:18;99247.25;;;14.53;100.00
42433;BME280;28071;48.232;20.668;2023-05-24T02:33:18;99241.72;;;14.42;100.00
42433;BME280;28071;48.232;20.668;2023-05-24T02:38:19;99246.66;;;14.51;100.00
42433;BME280;28071;48.232;20.668;2023-05-24T02:43:19;99236.38;;;14.42;100.00
42433;BME280;28071;48.232;20.668;2023-05-24T02:48:20;99238.00;;;14.43;100.00
42433;BME280;28071;48.232;20.668;2023-05-24T02:53:20;99240.69;;;14.43;100.00
42433;BME280;28071;48.232;20.668;2023-05-24T02:58:20;99243.84;;;14.40;100.00
42433;BME280;28071;48.232;20.668;2023-05-24T03:03:22;99248.22;;;14.47;100.00
42433;BME280;28071;48.232;20.668;2023-05-24T03:08:22;99241.56;;;14.49;100.00
42433;BME280;28071;48.232;20.668;2023-05-24T03:13:22;99241.63;;;14.54;100.00
42433;BME280;28071;48.232;20.668;2023-05-24T03:18:23;99252.19;;;14.66;100.00
42433;BME280;28071;48.232;20.668;2023-05-24T03:23:23;99248.16;;;14.63;100.00
42433;BME280;28071;48.232;20.668;2023-05-24T03:28:24;99251.63;;;14.64;100.00
42433;BME280;28071;48.232;20.668;2023-05-24T03:33:24;99256.94;;;14.59;100.00
42433;BME280;28071;48.232;20.668;2023-05-24T03:38:25;99259.09;;;14.62;100.00
42433;BME280;28071;48.232;20.668;2023-05-24T03:43:25;99246.66;;;14.51;100.00
42433;BME280;28071;48.232;20.668;2023-05-24T03:48:26;99250.47;;;14.55;100.00
42433;BME280;28071;48.232;20.668;2023-05-24T03:53:26;99256.19;;;14.63;100.00
42433;BME280;28071;48.232;20.668;2023-05-24T03:58:27;99256.44;;;14.62;100.00
42433;BME280;28071;48.232;20.668;2023-05-24T04:03:27;99247.25;;;14.53;100.00
42433;BME280;28071;48.232;20.668;2023-05-24T04:08:28;99268.31;;;14.49;100.00
42433;BME280;28071;48.232;20.668;2023-05-24T04:13:28;99268.66;;;14.53;100.00
42433;BME280;28071;48.232;20.668;2023-05-24T04:18:29;99263.66;;;14.61;100.00
42433;BME280;28071;48.232;20.668;2023-05-24T04:23:29;99273.59;;;14.66;100.00
42433;BME280;28071;48.232;20.668;2023-05-24T04:28:30;99275.28;;;14.72;100.00
42433;BME280;28071;48.232;20.668;2023-05-24T04:33:31;99283.38;;;14.77;100.00
42433;BME280;28071;48.232;20.668;2023-05-24T04:38:32;99282.72;;;14.92;100.00
42433;BME280;28071;48.232;20.668;2023-05-24T04:43:35;99282.53;;;14.98;100.00
42433;BME280;28071;48.232;20.668;2023-05-24T04:48:35;99282.00;;;15.02;100.00
42433;BME280;28071;48.232;20.668;2023-05-24T04:53:36;99279.06;;;15.03;100.00
42433;BME280;28071;48.232;20.668;2023-05-24T04:58:37;99281.59;;;15.15;100.00
42433;BME280;28071;48.232;20.668;2023-05-24T05:03:38;99279.06;;;15.30;100.00
42433;BME280;28071;48.232;20.668;2023-05-24T05:08:38;99288.56;;;15.48;100.00
42433;BME280;28071;48.232;20.668;2023-05-24T05:13:38;99286.69;;;15.48;100.00
42433;BME280;28071;48.232;20.668;2023-05-24T05:18:39;99295.38;;;15.61;100.00
42433;BME280;28071;48.232;20.668;2023-05-24T05:23:40;99306.31;;;15.81;100.00
42433;BME280;28071;48.232;20.668;2023-05-24T05:28:40;99305.06;;;15.99;100.00
42433;BME280;28071;48.232;20.668;2023-05-24T05:33:40;99313.81;;;16.26;100.00
42433;BME280;28071;48.232;20.668;2023-05-24T05:38:41;99316.28;;;16.38;100.00
42433;BME280;28071;48.232;20.668;2023-05-24T05:43:42;99309.09;;;16.54;100.00
42433;BME280;28071;48.232;20.668;2023-05-24T05:48:42;99316.72;;;16.72;100.00
42433;BME280;28071;48.232;20.668;2023-05-24T05:53:42;99314.38;;;16.96;100.00
42433;BME280;28071;48.232;20.668;2023-05-24T05:58:43;99325.72;;;17.18;100.00
42433;BME280;28071;48.232;20.668;2023-05-24T06:03:43;99321.16;;;17.24;100.00
42433;BME280;28071;48.232;20.668;2023-05-24T06:08:44;99344.28;;;17.51;100.00
42433;BME280;28071;48.232;20.668;2023-05-24T06:13:44;99354.81;;;17.62;100.00
42433;BME280;28071;48.232;20.668;2023-05-24T06:18:44;99354.78;;;17.67;100.00
42433;BME280;28071;48.232;20.668;2023-05-24T06:23:46;99365.56;;;17.83;100.00
42433;BME280;28071;48.232;20.668;2023-05-24T06:28:46;99346.50;;;17.84;100.00
42433;BME280;28071;48.232;20.668;2023-05-24T06:33:47;99371.47;;;18.10;100.00
42433;BME280;28071;48.232;20.668;2023-05-24T06:38:47;99377.66;;;18.21;100.00
42433;BME280;28071;48.232;20.668;2023-05-24T06:43:48;99380.59;;;18.40;100.00
42433;BME280;28071;48.232;20.668;2023-05-24T06:48:48;99385.94;;;18.55;100.00
42433;BME280;28071;48.232;20.668;2023-05-24T06:53:49;99393.44;;;18.63;100.00
42433;BME280;28071;48.232;20.668;2023-05-24T06:58:50;99387.53;;;18.66;100.00
42433;BME280;28071;48.232;20.668;2023-05-24T07:03:50;99383.16;;;18.80;100.00
42433;BME280;28071;48.232;20.668;2023-05-24T07:08:51;99378.50;;;18.96;100.00
42433;BME280;28071;48.232;20.668;2023-05-24T07:13:51;99397.94;;;18.98;100.00
42433;BME280;28071;48.232;20.668;2023-05-24T07:18:53;99392.41;;;19.19;100.00
42433;BME280;28071;48.232;20.668;2023-05-24T07:23:54;99402.28;;;19.44;100.00
42433;BME280;28071;48.232;20.668;2023-05-24T07:28:54;99400.91;;;19.41;100.00
42433;BME280;28071;48.232;20.668;2023-05-24T07:33:55;99403.22;;;19.68;100.00
42433;BME280;28071;48.232;20.668;2023-05-24T07:38:55;99408.06;;;20.05;100.00
42433;BME280;28071;48.232;20.668;2023-05-24T07:43:56;99409.69;;;20.30;100.00
42433;BME280;28071;48.232;20.668;2023-05-24T07:48:57;99409.63;;;20.40;100.00
42433;BME280;28071;48.232;20.668;2023-05-24T07:53:57;99419.09;;;20.67;100.00
42433;BME280;28071;48.232;20.668;2023-05-24T07:58:58;99414.66;;;20.76;100.00
42433;BME280;28071;48.232;20.668;2023-05-24T08:04:03;99416.91;;;20.69;100.00
42433;BME280;28071;48.232;20.668;2023-05-24T08:09:04;99430.13;;;20.70;100.00
42433;BME280;28071;48.232;20.668;2023-05-24T08:14:07;99433.69;;;20.66;100.00
42433;BME280;28071;48.232;20.668;2023-05-24T08:19:07;99441.84;;;20.61;100.00
42433;BME280;28071;48.232;20.668;2023-05-24T08:24:08;99433.53;;;20.57;100.00
42433;BME280;28071;48.232;20.668;2023-05-24T08:29:08;99444.25;;;20.33;100.00
42433;BME280;28071;48.232;20.668;2023-05-24T08:34:09;99443.97;;;20.01;100.00
42433;BME280;28071;48.232;20.668;2023-05-24T08:39:10;99440.28;;;19.91;100.00
42433;BME280;28071;48.232;20.668;2023-05-24T08:44:12;99446.16;;;19.99;100.00
42433;BME280;28071;48.232;20.668;2023-05-24T08:49:12;99466.03;;;20.13;100.00
42433;BME280;28071;48.232;20.668;2023-05-24T08:54:14;99470.06;;;20.15;100.00
42433;BME280;28071;48.232;20.668;2023-05-24T08:59:15;99470.41;;;20.38;100.00
42433;BME280;28071;48.232;20.668;2023-05-24T09:04:17;99479.75;;;20.56;100.00
42433;BME280;28071;48.232;20.668;2023-05-24T09:09:20;99464.00;;;20.29;100.00
42433;BME280;28071;48.232;20.668;2023-05-24T09:14:21;99481.06;;;20.58;100.00
42433;BME280;28071;48.232;20.668;2023-05-24T09:19:21;99484.25;;;20.65;100.00
42433;BME280;28071;48.232;20.668;2023-05-24T09:24:22;99481.25;;;20.67;100.00
42433;BME280;28071;48.232;20.668;2023-05-24T09:29:23;99488.75;;;20.99;100.00
42433;BME280;28071;48.232;20.668;2023-05-24T09:34:23;99493.16;;;21.14;100.00
42433;BME280;28071;48.232;20.668;2023-05-24T09:39:24;99498.75;;;20.98;100.00
42433;BME280;28071;48.232;20.668;2023-05-24T09:44:25;99495.88;;;21.14;100.00
42433;BME280;28071;48.232;20.668;2023-05-24T09:49:28;99496.84;;;21.23;100.00
42433;BME280;28071;48.232;20.668;2023-05-24T09:54:31;99467.50;;;21.35;100.00
42433;BME280;28071;48.232;20.668;2023-05-24T09:59:32;99491.00;;;21.58;100.00
42433;BME280;28071;48.232;20.668;2023-05-24T10:04:36;99499.13;;;21.96;98.10
42433;BME280;28071;48.232;20.668;2023-05-24T10:09:37;99496.13;;;21.98;92.44
42433;BME280;28071;48.232;20.668;2023-05-24T10:14:38;99501.88;;;22.29;92.05
42433;BME280;28071;48.232;20.668;2023-05-24T10:19:38;99512.13;;;22.64;93.25
42433;BME280;28071;48.232;20.668;2023-05-24T10:24:45;99506.69;;;22.97;88.85
42433;BME280;28071;48.232;20.668;2023-05-24T10:30:19;99502.69;;;22.62;89.39
42433;BME280;28071;48.232;20.668;2023-05-24T10:35:24;99495.00;;;22.36;91.02
42433;BME280;28071;48.232;20.668;2023-05-24T10:40:26;99507.91;;;22.26;88.01
42433;BME280;28071;48.232;20.668;2023-05-24T10:50:27;99513.44;;;22.53;88.70
42433;BME280;28071;48.232;20.668;2023-05-24T10:55:28;99498.50;;;22.69;87.08
42433;BME280;28071;48.232;20.668;2023-05-24T11:00:32;99488.63;;;22.46;87.75
42433;BME280;28071;48.232;20.668;2023-05-24T11:10:50;99499.88;;;22.67;82.76
42433;BME280;28071;48.232;20.668;2023-05-24T11:15:50;99500.09;;;22.70;81.40
42433;BME280;28071;48.232;20.668;2023-05-24T11:20:51;99515.66;;;22.32;100.00
42433;BME280;28071;48.232;20.668;2023-05-24T11:25:51;99517.59;;;21.32;100.00
42433;BME280;28071;48.232;20.668;2023-05-24T11:30:52;99509.88;;;20.68;100.00
42433;BME280;28071;48.232;20.668;2023-05-24T11:35:54;99531.13;;;20.11;100.00
42433;BME280;28071;48.232;20.668;2023-05-24T11:40:57;99530.16;;;19.92;100.00
42433;BME280;28071;48.232;20.668;2023-05-24T11:45:57;99526.31;;;19.59;100.00
42433;BME280;28071;48.232;20.668;2023-05-24T11:50:57;99527.38;;;19.53;100.00
42433;BME280;28071;48.232;20.668;2023-05-24T11:55:59;99526.00;;;19.55;100.00
42433;BME280;28071;48.232;20.668;2023-05-24T12:01:00;99522.97;;;19.77;100.00
42433;BME280;28071;48.232;20.668;2023-05-24T12:06:02;99510.34;;;19.67;100.00
42433;BME280;28071;48.232;20.668;2023-05-24T12:11:03;99515.47;;;19.69;100.00
42433;BME280;28071;48.232;20.668;2023-05-24T12:16:04;99512.81;;;20.03;100.00
42433;BME280;28071;48.232;20.668;2023-05-24T12:21:09;99500.56;;;20.16;100.00
42433;BME280;28071;48.232;20.668;2023-05-24T12:26:12;99496.41;;;19.94;100.00
42433;BME280;28071;48.232;20.668;2023-05-24T12:31:13;99524.75;;;20.31;100.00
42433;BME280;28071;48.232;20.668;2023-05-24T12:36:13;99521.13;;;20.12;100.00
42433;BME280;28071;48.232;20.668;2023-05-24T12:41:14;99527.91;;;20.43;100.00
42433;BME280;28071;48.232;20.668;2023-05-24T12:46:15;99516.28;;;20.43;100.00
42433;BME280;28071;48.232;20.668;2023-05-24T12:51:15;99509.22;;;20.52;100.00
42433;BME280;28071;48.232;20.668;2023-05-24T12:56:16;99504.09;;;20.80;100.00
42433;BME280;28071;48.232;20.668;2023-05-24T13:01:16;99502.38;;;20.89;100.00
42433;BME280;28071;48.232;20.668;2023-05-24T13:06:17;99502.97;;;20.86;100.00
42433;BME280;28071;48.232;20.668;2023-05-24T13:11:18;99470.16;;;20.92;100.00
42433;BME280;28071;48.232;20.668;2023-05-24T13:16:18;99470.94;;;20.93;100.00
42433;BME280;28071;48.232;20.668;2023-05-24T13:21:18;99473.78;;;21.06;100.00
42433;BME280;28071;48.232;20.668;2023-05-24T13:26:19;99484.72;;;21.20;100.00
42433;BME280;28071;48.232;20.668;2023-05-24T13:31:21;99481.88;;;21.06;100.00
42433;BME280;28071;48.232;20.668;2023-05-24T13:36:21;99478.72;;;21.23;100.00
42433;BME280;28071;48.232;20.668;2023-05-24T13:41:21;99477.22;;;21.12;100.00
42433;BME280;28071;48.232;20.668;2023-05-24T13:46:22;99476.81;;;21.00;100.00
42433;BME280;28071;48.232;20.668;2023-05-24T13:51:23;99473.91;;;20.72;100.00
42433;BME280;28071;48.232;20.668;2023-05-24T13:56:25;99472.03;;;20.68;100.00
42433;BME280;28071;48.232;20.668;2023-05-24T14:01:32;99458.44;;;21.02;100.00
42433;BME280;28071;48.232;20.668;2023-05-24T14:06:33;99468.16;;;21.03;100.00
42433;BME280;28071;48.232;20.668;2023-05-24T14:11:34;99477.97;;;21.18;100.00
42433;BME280;28071;48.232;20.668;2023-05-24T14:16:35;99462.25;;;21.20;100.00
42433;BME280;28071;48.232;20.668;2023-05-24T14:21:35;99460.38;;;21.20;100.00
42433;BME280;28071;48.232;20.668;2023-05-24T14:26:36;99471.97;;;21.45;100.00
42433;BME280;28071;48.232;20.668;2023-05-24T14:31:37;99464.09;;;21.48;100.00
42433;BME280;28071;48.232;20.668;2023-05-24T14:36:41;99471.25;;;21.58;100.00
42433;BME280;28071;48.232;20.668;2023-05-24T14:41:41;99461.38;;;21.48;100.00
42433;BME280;28071;48.232;20.668;2023-05-24T14:46:42;99473.16;;;21.57;100.00
42433;BME280;28071;48.232;20.668;2023-05-24T14:51:45;99462.84;;;21.17;100.00
42433;BME280;28071;48.232;20.668;2023-05-24T14:56:47;99491.06;;;21.53;100.00
42433;BME280;28071;48.232;20.668;2023-05-24T15:01:47;99482.66;;;21.36;100.00
42433;BME280;28071;48.232;20.668;2023-05-24T15:06:48;99479.78;;;21.27;100.00
42433;BME280;28071;48.232;20.668;2023-05-24T15:11:48;99486.44;;;21.11;100.00
42433;BME280;28071;48.232;20.668;2023-05-24T15:16:49;99488.34;;;21.11;100.00
42433;BME280;28071;48.232;20.668;2023-05-24T15:21:49;99498.13;;;21.30;100.00
42433;BME280;28071;48.232;20.668;2023-05-24T15:26:50;99492.06;;;21.15;100.00
42433;BME280;28071;48.232;20.668;2023-05-24T15:31:50;99480.34;;;21.24;100.00
42433;BME280;28071;48.232;20.668;2023-05-24T15:36:51;99482.75;;;21.26;100.00
42433;BME280;28071;48.232;20.668;2023-05-24T15:41:51;99491.56;;;21.13;100.00
42433;BME280;28071;48.232;20.668;2023-05-24T15:46:51;99502.47;;;21.31;100.00
42433;BME280;28071;48.232;20.668;2023-05-24T15:51:52;99495.22;;;21.22;100.00
42433;BME280;28071;48.232;20.668;2023-05-24T15:56:52;99515.22;;;21.26;100.00
42433;BME280;28071;48.232;20.668;2023-05-24T16:01:53;99531.50;;;20.34;100.00
42433;BME280;28071;48.232;20.668;2023-05-24T16:06:54;99538.41;;;19.66;100.00
42433;BME280;28071;48.232;20.668;2023-05-24T16:11:54;99545.53;;;19.37;100.00
42433;BME280;28071;48.232;20.668;2023-05-24T16:16:55;99549.59;;;19.24;100.00
42433;BME280;28071;48.232;20.668;2023-05-24T16:21:55;99561.72;;;19.27;100.00
42433;BME280;28071;48.232;20.668;2023-05-24T16:26:56;99550.72;;;19.08;100.00
42433;BME280;28071;48.232;20.668;2023-05-24T16:31:56;99532.19;;;18.86;100.00
42433;BME280;28071;48.232;20.668;2023-05-24T16:36:56;99545.66;;;18.91;100.00
42433;BME280;28071;48.232;20.668;2023-05-24T16:41:57;99559.69;;;18.83;100.00
42433;BME280;28071;48.232;20.668;2023-05-24T16:46:57;99550.78;;;18.72;100.00
42433;BME280;28071;48.232;20.668;2023-05-24T16:51:58;99545.66;;;18.66;100.00
42433;BME280;28071;48.232;20.668;2023-05-24T16:56:58;99556.41;;;18.50;100.00
42433;BME280;28071;48.232;20.668;2023-05-24T17:01:59;99559.94;;;18.30;100.00
42433;BME280;28071;48.232;20.668;2023-05-24T17:06:59;99555.03;;;18.12;100.00
42433;BME280;28071;48.232;20.668;2023-05-24T17:12:00;99562.56;;;18.05;100.00
42433;BME280;28071;48.232;20.668;2023-05-24T17:17:00;99564.44;;;17.94;100.00
42433;BME280;28071;48.232;20.668;2023-05-24T17:22:01;99563.84;;;17.77;100.00
42433;BME280;28071;48.232;20.668;2023-05-24T17:27:04;99547.88;;;17.60;100.00
42433;BME280;28071;48.232;20.668;2023-05-24T17:32:05;99565.16;;;17.69;100.00
42433;BME280;28071;48.232;20.668;2023-05-24T17:37:05;99557.31;;;17.68;100.00
42433;BME280;28071;48.232;20.668;2023-05-24T17:42:06;99568.16;;;17.83;100.00
42433;BME280;28071;48.232;20.668;2023-05-24T17:47:06;99561.41;;;17.75;100.00
42433;BME280;28071;48.232;20.668;2023-05-24T17:52:07;99563.47;;;17.58;100.00
42433;BME280;28071;48.232;20.668;2023-05-24T17:57:07;99565.53;;;17.36;100.00
42433;BME280;28071;48.232;20.668;2023-05-24T18:02:09;99567.34;;;17.20;100.00
42433;BME280;28071;48.232;20.668;2023-05-24T18:07:09;99568.84;;;17.06;100.00
42433;BME280;28071;48.232;20.668;2023-05-24T18:12:10;99571.88;;;16.72;100.00
42433;BME280;28071;48.232;20.668;2023-05-24T18:17:11;99582.53;;;16.67;100.00
42433;BME280;28071;48.232;20.668;2023-05-24T18:22:11;99583.06;;;16.37;100.00
42433;BME280;28071;48.232;20.668;2023-05-24T18:27:12;99594.44;;;16.17;100.00
42433;BME280;28071;48.232;20.668;2023-05-24T18:32:12;99602.00;;;15.98;100.00
42433;BME280;28071;48.232;20.668;2023-05-24T18:37:13;99611.56;;;15.89;100.00
42433;BME280;28071;48.232;20.668;2023-05-24T18:42:13;99609.31;;;15.59;100.00
42433;BME280;28071;48.232;20.668;2023-05-24T18:47:14;99638.78;;;15.59;100.00
42433;BME280;28071;48.232;20.668;2023-05-24T18:52:14;99624.56;;;15.37;100.00
42433;BME280;28071;48.232;20.668;2023-05-24T18:57:15;99646.72;;;15.32;100.00
42433;BME280;28071;48.232;20.668;2023-05-24T19:02:18;99642.88;;;15.06;100.00
42433;BME280;28071;48.232;20.668;2023-05-24T19:07:19;99646.09;;;15.08;100.00
42433;BME280;28071;48.232;20.668;2023-05-24T19:12:19;99652.19;;;15.04;100.00
42433;BME280;28071;48.232;20.668;2023-05-24T19:17:20;99660.06;;;14.93;100.00
42433;BME280;28071;48.232;20.668;2023-05-24T19:22:20;99661.94;;;14.76;100.00
42433;BME280;28071;48.232;20.668;2023-05-24T19:27:21;99671.06;;;14.63;100.00
42433;BME280;28071;48.232;20.668;2023-05-24T19:32:21;99675.63;;;14.63;100.00
42433;BME280;28071;48.232;20.668;2023-05-24T19:37:22;99692.97;;;14.60;100.00
42433;BME280;28071;48.232;20.668;2023-05-24T19:42:23;99651.66;;;14.28;100.00
42433;BME280;28071;48.232;20.668;2023-05-24T19:47:24;99683.72;;;14.39;100.00
42433;BME280;28071;48.232;20.668;2023-05-24T19:52:24;99689.47;;;14.31;100.00
42433;BME280;28071;48.232;20.668;2023-05-24T19:57:25;99687.69;;;14.37;100.00
42433;BME280;28071;48.232;20.668;2023-05-24T20:02:26;99688.34;;;14.15;100.00
42433;BME280;28071;48.232;20.668;2023-05-24T20:07:26;99689.19;;;14.04;100.00
42433;BME280;28071;48.232;20.668;2023-05-24T20:12:27;99688.97;;;14.06;100.00
42433;BME280;28071;48.232;20.668;2023-05-24T20:17:29;99693.41;;;14.00;100.00
42433;BME280;28071;48.232;20.668;2023-05-24T20:22:30;99695.25;;;14.00;100.00
42433;BME280;28071;48.232;20.668;2023-05-24T20:27:30;99691.53;;;13.89;100.00
42433;BME280;28071;48.232;20.668;2023-05-24T20:32:31;99689.59;;;13.84;100.00
42433;BME280;28071;48.232;20.668;2023-05-24T20:37:31;99696.00;;;13.83;100.00
42433;BME280;28071;48.232;20.668;2023-05-24T20:42:32;99696.34;;;13.75;100.00
42433;BME280;28071;48.232;20.668;2023-05-24T20:47:33;99702.03;;;13.79;100.00
42433;BME280;28071;48.232;20.668;2023-05-24T20:52:33;99706.44;;;13.73;100.00
42433;BME280;28071;48.232;20.668;2023-05-24T20:57:33;99708.34;;;13.61;100.00
42433;BME280;28071;48.232;20.668;2023-05-24T21:02:34;99689.06;;;13.47;100.00
42433;BME280;28071;48.232;20.668;2023-05-24T21:07:35;99704.59;;;13.50;100.00
42433;BME280;28071;48.232;20.668;2023-05-24T21:12:35;99696.13;;;13.42;100.00
42433;BME280;28071;48.232;20.668;2023-05-24T21:17:36;99720.16;;;13.42;100.00
42433;BME280;28071;48.232;20.668;2023-05-24T21:22:38;99719.47;;;13.35;100.00
42433;BME280;28071;48.232;20.668;2023-05-24T21:27:38;99726.34;;;13.30;100.00
42433;BME280;28071;48.232;20.668;2023-05-24T21:32:39;99728.94;;;13.19;100.00
42433;BME280;28071;48.232;20.668;2023-05-24T21:37:39;99731.84;;;13.17;100.00
42433;BME280;28071;48.232;20.668;2023-05-24T21:42:39;99721.63;;;13.14;100.00
42433;BME280;28071;48.232;20.668;2023-05-24T21:47:41;99729.38;;;13.04;100.00
42433;BME280;28071;48.232;20.668;2023-05-24T21:52:41;99743.78;;;13.15;100.00
42433;BME280;28071;48.232;20.668;2023-05-24T21:57:42;99746.59;;;13.08;100.00
42433;BME280;28071;48.232;20.668;2023-05-24T22:02:42;99741.78;;;12.98;100.00
42433;BME280;28071;48.232;20.668;2023-05-24T22:07:43;99740.63;;;12.94;100.00
42433;BME280;28071;48.232;20.668;2023-05-24T22:12:43;99747.53;;;12.84;100.00
42433;BME280;28071;48.232;20.668;2023-05-24T22:17:44;99745.34;;;12.81;100.00
42433;BME280;28071;48.232;20.668;2023-05-24T22:22:44;99756.59;;;12.83;100.00
42433;BME280;28071;48.232;20.668;2023-05-24T22:27:48;99755.88;;;12.75;100.00
42433;BME280;28071;48.232;20.668;2023-05-24T22:32:49;99750.19;;;12.72;100.00
42433;BME280;28071;48.232;20.668;2023-05-24T22:37:50;99754.44;;;12.61;100.00
42433;BME280;28071;48.232;20.668;2023-05-24T22:42:50;99758.75;;;12.62;100.00
42433;BME280;28071;48.232;20.668;2023-05-24T22:47:50;99762.81;;;12.65;100.00
42433;BME280;28071;48.232;20.668;2023-05-24T22:52:53;99756.59;;;12.53;100.00
42433;BME280;28071;48.232;20.668;2023-05-24T22:57:55;99765.28;;;12.48;100.00
42433;BME280;28071;48.232;20.668;2023-05-24T23:02:56;99767.00;;;12.42;100.00
42433;BME280;28071;48.232;20.668;2023-05-24T23:07:56;99773.59;;;12.40;100.00
42433;BME280;28071;48.232;20.668;2023-05-24T23:12:57;99766.69;;;12.50;100.00
42433;BME280;28071;48.232;20.668;2023-05-24T23:17:57;99770.13;;;12.39;100.00
42433;BME280;28071;48.232;20.668;2023-05-24T23:22:58;99771.00;;;12.33;100.00
42433;BME280;28071;48.232;20.668;2023-05-24T23:28:02;99775.00;;;12.24;100.00
42433;BME280;28071;48.232;20.668;2023-05-24T23:33:03;99778.34;;;12.19;100.00
42433;BME280;28071;48.232;20.668;2023-05-24T23:38:03;99783.44;;;12.21;100.00
42433;BME280;28071;48.232;20.668;2023-05-24T23:43:04;99793.38;;;12.14;100.00
42433;BME280;28071;48.232;20.668;2023-05-24T23:48:04;99787.53;;;12.05;100.00
42433;BME280;28071;48.232;20.668;2023-05-24T23:53:05;99782.47;;;11.97;100.00
42433;BME280;28071;48.232;20.668;2023-05-24T23:58:06;99773.00;;;11.83;100.00
